X  Schließen METAR Luftfahrt Wetterdaten     EDTY Adolf Würth Airport
Temperatur
11°C Temperatur
10°C Taupunkt
94% Feuchtigkeit



Wind
19 km/h
12 MPS
5 m/s
10 kts



230°
SW
Aktuelle Wetterlage

teilweise bewölkt teilweise bewölkt
Luftdruck 1011.92 (hPa) - 29.88 (inHg)
Sichtweite 6.2 (Meile) - 10 (km)
Flughafen
Flughafen Code EDTY

Position : Adolf Würth Airport
Entfernung: 21 (km)

Metar:
EDTY 011320Z 23010KT 9999 FEW007 BKN011 OVC014 11/10 Q1012

Zeit: 01-10-2022 15:20 CEST